sensor_id;sensor_type;location;lat;lon;timestamp;P1;durP1;ratioP1;P2;durP2;ratioP2
70406;SDS011;57821;52.202;0.154;2022-12-18T00:01:22;57.97;;;21.00;;
70406;SDS011;57821;52.202;0.154;2022-12-18T00:03:50;69.28;;;20.42;;
70406;SDS011;57821;52.202;0.154;2022-12-18T00:06:18;70.65;;;21.33;;
70406;SDS011;57821;52.202;0.154;2022-12-18T00:08:45;66.82;;;21.73;;
70406;SDS011;57821;52.202;0.154;2022-12-18T00:11:16;63.35;;;22.00;;
70406;SDS011;57821;52.202;0.154;2022-12-18T00:13:44;61.13;;;22.38;;
70406;SDS011;57821;52.202;0.154;2022-12-18T00:16:13;67.75;;;21.65;;
70406;SDS011;57821;52.202;0.154;2022-12-18T00:18:41;66.18;;;21.83;;
70406;SDS011;57821;52.202;0.154;2022-12-18T00:21:09;68.03;;;21.70;;
70406;SDS011;57821;52.202;0.154;2022-12-18T00:23:38;60.33;;;21.75;;
70406;SDS011;57821;52.202;0.154;2022-12-18T00:26:07;59.58;;;23.23;;
70406;SDS011;57821;52.202;0.154;2022-12-18T00:28:41;69.20;;;22.35;;
70406;SDS011;57821;52.202;0.154;2022-12-18T00:31:09;57.78;;;21.10;;
70406;SDS011;57821;52.202;0.154;2022-12-18T00:33:38;77.30;;;21.50;;
70406;SDS011;57821;52.202;0.154;2022-12-18T00:36:12;64.47;;;23.10;;
70406;SDS011;57821;52.202;0.154;2022-12-18T00:38:41;71.30;;;21.02;;
70406;SDS011;57821;52.202;0.154;2022-12-18T00:41:10;77.68;;;22.30;;
70406;SDS011;57821;52.202;0.154;2022-12-18T00:43:37;68.82;;;23.20;;
70406;SDS011;57821;52.202;0.154;2022-12-18T00:46:05;61.00;;;20.52;;
70406;SDS011;57821;52.202;0.154;2022-12-18T00:48:32;68.43;;;21.98;;
70406;SDS011;57821;52.202;0.154;2022-12-18T00:50:59;72.07;;;22.25;;
70406;SDS011;57821;52.202;0.154;2022-12-18T00:53:25;64.78;;;21.98;;
70406;SDS011;57821;52.202;0.154;2022-12-18T00:55:51;66.47;;;21.40;;
70406;SDS011;57821;52.202;0.154;2022-12-18T00:58:18;68.45;;;21.40;;
70406;SDS011;57821;52.202;0.154;2022-12-18T01:00:44;72.18;;;22.75;;
70406;SDS011;57821;52.202;0.154;2022-12-18T01:03:14;68.80;;;21.77;;
70406;SDS011;57821;52.202;0.154;2022-12-18T01:05:43;68.20;;;20.23;;
70406;SDS011;57821;52.202;0.154;2022-12-18T01:08:10;67.95;;;21.58;;
70406;SDS011;57821;52.202;0.154;2022-12-18T01:10:39;73.43;;;22.05;;
70406;SDS011;57821;52.202;0.154;2022-12-18T01:13:06;68.97;;;22.35;;
70406;SDS011;57821;52.202;0.154;2022-12-18T01:15:33;77.53;;;23.25;;
70406;SDS011;57821;52.202;0.154;2022-12-18T01:17:59;64.85;;;22.77;;
70406;SDS011;57821;52.202;0.154;2022-12-18T01:20:25;87.25;;;24.17;;
70406;SDS011;57821;52.202;0.154;2022-12-18T01:22:52;85.70;;;24.48;;
70406;SDS011;57821;52.202;0.154;2022-12-18T01:25:18;70.03;;;23.92;;
70406;SDS011;57821;52.202;0.154;2022-12-18T01:27:45;83.45;;;26.23;;
70406;SDS011;57821;52.202;0.154;2022-12-18T01:30:11;74.32;;;23.70;;
70406;SDS011;57821;52.202;0.154;2022-12-18T01:32:38;75.20;;;23.92;;
70406;SDS011;57821;52.202;0.154;2022-12-18T01:35:05;79.55;;;24.38;;
70406;SDS011;57821;52.202;0.154;2022-12-18T01:37:32;77.28;;;25.75;;
70406;SDS011;57821;52.202;0.154;2022-12-18T01:39:58;75.45;;;23.98;;
70406;SDS011;57821;52.202;0.154;2022-12-18T01:42:25;82.68;;;25.92;;
70406;SDS011;57821;52.202;0.154;2022-12-18T01:44:59;74.30;;;23.70;;
70406;SDS011;57821;52.202;0.154;2022-12-18T01:47:27;70.85;;;21.50;;
70406;SDS011;57821;52.202;0.154;2022-12-18T01:49:55;61.38;;;21.77;;
70406;SDS011;57821;52.202;0.154;2022-12-18T01:52:23;68.43;;;21.92;;
70406;SDS011;57821;52.202;0.154;2022-12-18T01:54:52;56.40;;;20.13;;
70406;SDS011;57821;52.202;0.154;2022-12-18T01:57:19;71.57;;;20.70;;
70406;SDS011;57821;52.202;0.154;2022-12-18T01:59:47;64.07;;;21.95;;
70406;SDS011;57821;52.202;0.154;2022-12-18T02:02:18;63.23;;;21.00;;
70406;SDS011;57821;52.202;0.154;2022-12-18T02:04:45;61.70;;;19.33;;
70406;SDS011;57821;52.202;0.154;2022-12-18T02:10:00;71.82;;;20.38;;
70406;SDS011;57821;52.202;0.154;2022-12-18T02:12:47;61.08;;;20.73;;
70406;SDS011;57821;52.202;0.154;2022-12-18T02:15:20;58.50;;;19.25;;
70406;SDS011;57821;52.202;0.154;2022-12-18T02:17:58;63.55;;;20.05;;
70406;SDS011;57821;52.202;0.154;2022-12-18T02:20:43;65.47;;;19.55;;
70406;SDS011;57821;52.202;0.154;2022-12-18T02:23:32;63.50;;;19.10;;
70406;SDS011;57821;52.202;0.154;2022-12-18T02:28:55;60.22;;;19.38;;
70406;SDS011;57821;52.202;0.154;2022-12-18T02:31:28;57.13;;;19.08;;
70406;SDS011;57821;52.202;0.154;2022-12-18T02:34:01;76.03;;;21.88;;
70406;SDS011;57821;52.202;0.154;2022-12-18T02:36:36;64.82;;;21.10;;
70406;SDS011;57821;52.202;0.154;2022-12-18T02:39:07;48.00;;;15.10;;
70406;SDS011;57821;52.202;0.154;2022-12-18T02:41:42;51.75;;;18.00;;
70406;SDS011;57821;52.202;0.154;2022-12-18T02:44:10;65.97;;;18.50;;
70406;SDS011;57821;52.202;0.154;2022-12-18T02:46:46;54.38;;;18.38;;
70406;SDS011;57821;52.202;0.154;2022-12-18T02:49:24;65.03;;;20.90;;
70406;SDS011;57821;52.202;0.154;2022-12-18T02:55:33;60.22;;;19.42;;
70406;SDS011;57821;52.202;0.154;2022-12-18T03:01:16;65.38;;;21.48;;
70406;SDS011;57821;52.202;0.154;2022-12-18T03:03:51;59.80;;;20.23;;
70406;SDS011;57821;52.202;0.154;2022-12-18T03:06:25;69.57;;;21.35;;
70406;SDS011;57821;52.202;0.154;2022-12-18T03:09:00;62.28;;;20.63;;
70406;SDS011;57821;52.202;0.154;2022-12-18T03:11:31;64.15;;;22.20;;
70406;SDS011;57821;52.202;0.154;2022-12-18T03:14:00;57.35;;;20.58;;
70406;SDS011;57821;52.202;0.154;2022-12-18T03:16:28;67.15;;;21.05;;
70406;SDS011;57821;52.202;0.154;2022-12-18T03:19:05;72.90;;;21.25;;
70406;SDS011;57821;52.202;0.154;2022-12-18T03:21:43;61.95;;;20.80;;
70406;SDS011;57821;52.202;0.154;2022-12-18T03:24:15;62.40;;;20.55;;
70406;SDS011;57821;52.202;0.154;2022-12-18T03:26:46;60.30;;;20.13;;
70406;SDS011;57821;52.202;0.154;2022-12-18T03:31:58;61.70;;;19.35;;
70406;SDS011;57821;52.202;0.154;2022-12-18T03:34:32;62.25;;;19.73;;
70406;SDS011;57821;52.202;0.154;2022-12-18T03:37:05;57.90;;;21.08;;
70406;SDS011;57821;52.202;0.154;2022-12-18T03:39:33;62.45;;;21.20;;
70406;SDS011;57821;52.202;0.154;2022-12-18T03:42:08;69.47;;;20.98;;
70406;SDS011;57821;52.202;0.154;2022-12-18T03:45:03;62.40;;;20.08;;
70406;SDS011;57821;52.202;0.154;2022-12-18T03:55:43;62.00;;;20.08;;
70406;SDS011;57821;52.202;0.154;2022-12-18T03:58:13;53.50;;;20.05;;
70406;SDS011;57821;52.202;0.154;2022-12-18T04:00:55;56.85;;;18.73;;
70406;SDS011;57821;52.202;0.154;2022-12-18T04:03:24;61.22;;;20.65;;
70406;SDS011;57821;52.202;0.154;2022-12-18T04:05:52;70.57;;;20.58;;
70406;SDS011;57821;52.202;0.154;2022-12-18T04:08:21;69.15;;;21.83;;
70406;SDS011;57821;52.202;0.154;2022-12-18T04:10:59;67.55;;;20.75;;
70406;SDS011;57821;52.202;0.154;2022-12-18T04:13:31;61.90;;;20.33;;
70406;SDS011;57821;52.202;0.154;2022-12-18T04:16:02;70.20;;;20.27;;
70406;SDS011;57821;52.202;0.154;2022-12-18T04:18:28;59.33;;;18.67;;
70406;SDS011;57821;52.202;0.154;2022-12-18T04:20:56;61.38;;;19.55;;
70406;SDS011;57821;52.202;0.154;2022-12-18T04:23:23;53.15;;;17.45;;
70406;SDS011;57821;52.202;0.154;2022-12-18T04:25:50;64.63;;;19.60;;
70406;SDS011;57821;52.202;0.154;2022-12-18T04:28:29;60.50;;;19.30;;
70406;SDS011;57821;52.202;0.154;2022-12-18T04:30:56;61.25;;;18.40;;
70406;SDS011;57821;52.202;0.154;2022-12-18T04:33:23;65.25;;;19.65;;
70406;SDS011;57821;52.202;0.154;2022-12-18T04:35:49;63.80;;;20.00;;
70406;SDS011;57821;52.202;0.154;2022-12-18T04:38:16;58.75;;;17.80;;
70406;SDS011;57821;52.202;0.154;2022-12-18T04:40:44;57.58;;;17.10;;
70406;SDS011;57821;52.202;0.154;2022-12-18T04:43:19;52.25;;;17.55;;
70406;SDS011;57821;52.202;0.154;2022-12-18T04:45:45;51.50;;;18.05;;
70406;SDS011;57821;52.202;0.154;2022-12-18T04:48:12;47.30;;;16.15;;
70406;SDS011;57821;52.202;0.154;2022-12-18T04:50:38;51.40;;;18.40;;
70406;SDS011;57821;52.202;0.154;2022-12-18T04:53:06;47.63;;;16.38;;
70406;SDS011;57821;52.202;0.154;2022-12-18T04:55:32;46.05;;;16.25;;
70406;SDS011;57821;52.202;0.154;2022-12-18T04:57:59;53.28;;;17.60;;
70406;SDS011;57821;52.202;0.154;2022-12-18T05:00:25;51.50;;;17.55;;
70406;SDS011;57821;52.202;0.154;2022-12-18T05:02:52;44.35;;;16.63;;
70406;SDS011;57821;52.202;0.154;2022-12-18T05:05:19;46.25;;;17.17;;
70406;SDS011;57821;52.202;0.154;2022-12-18T05:07:45;45.08;;;16.00;;
70406;SDS011;57821;52.202;0.154;2022-12-18T05:10:12;47.78;;;16.95;;
70406;SDS011;57821;52.202;0.154;2022-12-18T05:12:38;43.33;;;17.13;;
70406;SDS011;57821;52.202;0.154;2022-12-18T05:15:05;45.90;;;18.10;;
70406;SDS011;57821;52.202;0.154;2022-12-18T05:17:32;50.78;;;17.88;;
70406;SDS011;57821;52.202;0.154;2022-12-18T05:19:58;45.63;;;16.63;;
70406;SDS011;57821;52.202;0.154;2022-12-18T05:22:25;46.75;;;16.05;;
70406;SDS011;57821;52.202;0.154;2022-12-18T05:24:51;41.83;;;15.80;;
70406;SDS011;57821;52.202;0.154;2022-12-18T05:27:18;47.88;;;16.85;;
70406;SDS011;57821;52.202;0.154;2022-12-18T05:29:44;40.28;;;16.23;;
70406;SDS011;57821;52.202;0.154;2022-12-18T05:32:11;40.28;;;16.38;;
70406;SDS011;57821;52.202;0.154;2022-12-18T05:34:37;46.25;;;16.10;;
70406;SDS011;57821;52.202;0.154;2022-12-18T05:37:04;41.03;;;14.77;;
70406;SDS011;57821;52.202;0.154;2022-12-18T05:39:30;45.78;;;17.30;;
70406;SDS011;57821;52.202;0.154;2022-12-18T05:41:56;49.30;;;17.58;;
70406;SDS011;57821;52.202;0.154;2022-12-18T05:44:23;49.33;;;16.67;;
70406;SDS011;57821;52.202;0.154;2022-12-18T05:46:50;47.92;;;17.58;;
70406;SDS011;57821;52.202;0.154;2022-12-18T05:49:16;44.85;;;17.00;;
70406;SDS011;57821;52.202;0.154;2022-12-18T05:51:42;44.42;;;16.70;;
70406;SDS011;57821;52.202;0.154;2022-12-18T05:54:09;40.00;;;15.30;;
70406;SDS011;57821;52.202;0.154;2022-12-18T05:56:35;41.13;;;16.40;;
70406;SDS011;57821;52.202;0.154;2022-12-18T05:59:02;40.85;;;15.90;;
70406;SDS011;57821;52.202;0.154;2022-12-18T06:01:29;40.85;;;16.42;;
70406;SDS011;57821;52.202;0.154;2022-12-18T06:03:56;40.47;;;17.10;;
70406;SDS011;57821;52.202;0.154;2022-12-18T06:06:23;42.80;;;16.88;;
70406;SDS011;57821;52.202;0.154;2022-12-18T06:08:52;39.22;;;16.73;;
70406;SDS011;57821;52.202;0.154;2022-12-18T06:11:21;44.47;;;17.48;;
70406;SDS011;57821;52.202;0.154;2022-12-18T06:13:53;45.63;;;16.17;;
70406;SDS011;57821;52.202;0.154;2022-12-18T06:18:50;42.80;;;15.63;;
70406;SDS011;57821;52.202;0.154;2022-12-18T06:21:16;49.13;;;16.10;;
70406;SDS011;57821;52.202;0.154;2022-12-18T06:23:43;44.38;;;16.40;;
70406;SDS011;57821;52.202;0.154;2022-12-18T06:26:10;40.03;;;15.30;;
70406;SDS011;57821;52.202;0.154;2022-12-18T06:28:38;47.50;;;16.60;;
70406;SDS011;57821;52.202;0.154;2022-12-18T06:31:05;49.65;;;16.30;;
70406;SDS011;57821;52.202;0.154;2022-12-18T06:33:32;41.70;;;16.40;;
70406;SDS011;57821;52.202;0.154;2022-12-18T06:36:01;45.30;;;16.10;;
70406;SDS011;57821;52.202;0.154;2022-12-18T06:38:29;47.88;;;17.17;;
70406;SDS011;57821;52.202;0.154;2022-12-18T06:40:57;41.88;;;16.63;;
70406;SDS011;57821;52.202;0.154;2022-12-18T06:43:23;43.78;;;16.35;;
70406;SDS011;57821;52.202;0.154;2022-12-18T06:45:50;45.38;;;17.25;;
70406;SDS011;57821;52.202;0.154;2022-12-18T06:48:16;41.05;;;16.60;;
70406;SDS011;57821;52.202;0.154;2022-12-18T06:50:43;44.08;;;18.58;;
70406;SDS011;57821;52.202;0.154;2022-12-18T06:53:09;40.38;;;15.48;;
70406;SDS011;57821;52.202;0.154;2022-12-18T06:55:36;40.05;;;16.52;;
70406;SDS011;57821;52.202;0.154;2022-12-18T06:58:03;46.05;;;17.83;;
70406;SDS011;57821;52.202;0.154;2022-12-18T07:00:29;46.38;;;17.75;;
70406;SDS011;57821;52.202;0.154;2022-12-18T07:02:56;46.38;;;17.45;;
70406;SDS011;57821;52.202;0.154;2022-12-18T07:05:22;41.83;;;16.70;;
70406;SDS011;57821;52.202;0.154;2022-12-18T07:07:49;46.97;;;18.77;;
70406;SDS011;57821;52.202;0.154;2022-12-18T07:10:15;46.75;;;15.88;;
70406;SDS011;57821;52.202;0.154;2022-12-18T07:12:42;45.63;;;18.30;;
70406;SDS011;57821;52.202;0.154;2022-12-18T07:15:08;45.28;;;16.80;;
70406;SDS011;57821;52.202;0.154;2022-12-18T07:17:35;42.78;;;17.58;;
70406;SDS011;57821;52.202;0.154;2022-12-18T07:20:01;44.53;;;17.17;;
70406;SDS011;57821;52.202;0.154;2022-12-18T07:22:28;43.65;;;17.17;;
70406;SDS011;57821;52.202;0.154;2022-12-18T07:24:55;41.58;;;15.60;;
70406;SDS011;57821;52.202;0.154;2022-12-18T07:27:22;43.97;;;17.50;;
70406;SDS011;57821;52.202;0.154;2022-12-18T07:29:48;45.65;;;18.98;;
70406;SDS011;57821;52.202;0.154;2022-12-18T07:32:15;40.45;;;15.13;;
70406;SDS011;57821;52.202;0.154;2022-12-18T07:34:41;43.30;;;17.23;;
70406;SDS011;57821;52.202;0.154;2022-12-18T07:37:08;42.50;;;17.35;;
70406;SDS011;57821;52.202;0.154;2022-12-18T07:39:34;44.60;;;16.17;;
70406;SDS011;57821;52.202;0.154;2022-12-18T07:42:01;41.63;;;16.92;;
70406;SDS011;57821;52.202;0.154;2022-12-18T07:44:27;41.58;;;17.25;;
70406;SDS011;57821;52.202;0.154;2022-12-18T07:46:54;43.03;;;16.63;;
70406;SDS011;57821;52.202;0.154;2022-12-18T07:49:20;36.53;;;15.25;;
70406;SDS011;57821;52.202;0.154;2022-12-18T07:51:47;42.70;;;15.55;;
70406;SDS011;57821;52.202;0.154;2022-12-18T07:54:13;37.83;;;15.77;;
70406;SDS011;57821;52.202;0.154;2022-12-18T07:56:40;44.58;;;14.90;;
70406;SDS011;57821;52.202;0.154;2022-12-18T07:59:06;42.20;;;15.85;;
70406;SDS011;57821;52.202;0.154;2022-12-18T08:01:33;39.25;;;16.13;;
70406;SDS011;57821;52.202;0.154;2022-12-18T08:04:00;40.25;;;15.35;;
70406;SDS011;57821;52.202;0.154;2022-12-18T08:06:26;37.00;;;15.15;;
70406;SDS011;57821;52.202;0.154;2022-12-18T08:08:53;40.25;;;16.58;;
70406;SDS011;57821;52.202;0.154;2022-12-18T08:11:21;37.03;;;14.15;;
70406;SDS011;57821;52.202;0.154;2022-12-18T08:13:48;34.40;;;14.68;;
70406;SDS011;57821;52.202;0.154;2022-12-18T08:16:15;41.42;;;14.73;;
70406;SDS011;57821;52.202;0.154;2022-12-18T08:18:42;37.72;;;14.43;;
70406;SDS011;57821;52.202;0.154;2022-12-18T08:21:09;34.92;;;13.88;;
70406;SDS011;57821;52.202;0.154;2022-12-18T08:23:37;30.77;;;12.63;;
70406;SDS011;57821;52.202;0.154;2022-12-18T08:28:35;28.98;;;11.68;;
70406;SDS011;57821;52.202;0.154;2022-12-18T08:31:02;27.23;;;11.75;;
70406;SDS011;57821;52.202;0.154;2022-12-18T08:33:29;36.25;;;13.23;;
70406;SDS011;57821;52.202;0.154;2022-12-18T08:35:55;26.58;;;11.65;;
70406;SDS011;57821;52.202;0.154;2022-12-18T08:38:22;27.63;;;10.93;;
70406;SDS011;57821;52.202;0.154;2022-12-18T08:40:48;29.73;;;11.70;;
70406;SDS011;57821;52.202;0.154;2022-12-18T08:43:14;30.15;;;12.23;;
70406;SDS011;57821;52.202;0.154;2022-12-18T08:45:41;29.92;;;11.77;;
70406;SDS011;57821;52.202;0.154;2022-12-18T08:48:07;26.63;;;10.93;;
70406;SDS011;57821;52.202;0.154;2022-12-18T08:50:34;30.00;;;11.30;;
70406;SDS011;57821;52.202;0.154;2022-12-18T08:53:00;29.10;;;10.93;;
70406;SDS011;57821;52.202;0.154;2022-12-18T08:55:27;25.90;;;10.55;;
70406;SDS011;57821;52.202;0.154;2022-12-18T08:57:53;26.98;;;10.75;;
70406;SDS011;57821;52.202;0.154;2022-12-18T09:00:20;26.60;;;10.30;;
70406;SDS011;57821;52.202;0.154;2022-12-18T09:02:46;24.10;;;10.40;;
70406;SDS011;57821;52.202;0.154;2022-12-18T09:05:13;29.63;;;11.07;;
70406;SDS011;57821;52.202;0.154;2022-12-18T09:07:40;27.05;;;11.15;;
70406;SDS011;57821;52.202;0.154;2022-12-18T09:10:06;28.77;;;10.55;;
70406;SDS011;57821;52.202;0.154;2022-12-18T09:12:33;27.13;;;10.25;;
70406;SDS011;57821;52.202;0.154;2022-12-18T09:14:59;21.08;;;9.88;;
70406;SDS011;57821;52.202;0.154;2022-12-18T09:17:26;23.02;;;10.00;;
70406;SDS011;57821;52.202;0.154;2022-12-18T09:19:52;20.80;;;9.63;;
70406;SDS011;57821;52.202;0.154;2022-12-18T09:22:19;23.98;;;9.93;;
70406;SDS011;57821;52.202;0.154;2022-12-18T09:24:45;23.88;;;10.10;;
70406;SDS011;57821;52.202;0.154;2022-12-18T09:27:12;26.08;;;10.32;;
70406;SDS011;57821;52.202;0.154;2022-12-18T09:29:38;22.60;;;9.63;;
70406;SDS011;57821;52.202;0.154;2022-12-18T09:32:05;25.35;;;10.63;;
70406;SDS011;57821;52.202;0.154;2022-12-18T09:34:31;24.67;;;9.90;;
70406;SDS011;57821;52.202;0.154;2022-12-18T09:36:58;23.52;;;10.25;;
70406;SDS011;57821;52.202;0.154;2022-12-18T09:39:24;23.33;;;10.02;;
70406;SDS011;57821;52.202;0.154;2022-12-18T09:41:52;18.83;;;8.45;;
70406;SDS011;57821;52.202;0.154;2022-12-18T09:44:27;25.02;;;10.25;;
70406;SDS011;57821;52.202;0.154;2022-12-18T09:47:09;21.55;;;9.63;;
70406;SDS011;57821;52.202;0.154;2022-12-18T09:49:45;20.35;;;8.77;;
70406;SDS011;57821;52.202;0.154;2022-12-18T09:57:29;18.30;;;8.70;;
70406;SDS011;57821;52.202;0.154;2022-12-18T10:00:03;25.35;;;10.90;;
70406;SDS011;57821;52.202;0.154;2022-12-18T10:02:37;22.65;;;9.77;;
70406;SDS011;57821;52.202;0.154;2022-12-18T10:05:05;25.88;;;11.00;;
70406;SDS011;57821;52.202;0.154;2022-12-18T10:10:43;20.40;;;9.30;;
70406;SDS011;57821;52.202;0.154;2022-12-18T10:13:19;18.50;;;9.30;;
70406;SDS011;57821;52.202;0.154;2022-12-18T10:16:14;21.23;;;9.52;;
70406;SDS011;57821;52.202;0.154;2022-12-18T10:21:45;21.27;;;9.52;;
70406;SDS011;57821;52.202;0.154;2022-12-18T10:27:32;20.60;;;10.05;;
70406;SDS011;57821;52.202;0.154;2022-12-18T10:29:59;21.48;;;10.15;;
70406;SDS011;57821;52.202;0.154;2022-12-18T10:32:35;22.50;;;10.27;;
70406;SDS011;57821;52.202;0.154;2022-12-18T10:35:01;26.85;;;9.98;;
70406;SDS011;57821;52.202;0.154;2022-12-18T10:37:28;23.67;;;11.32;;
70406;SDS011;57821;52.202;0.154;2022-12-18T10:40:09;27.05;;;11.35;;
70406;SDS011;57821;52.202;0.154;2022-12-18T10:42:55;23.05;;;10.50;;
70406;SDS011;57821;52.202;0.154;2022-12-18T10:45:38;22.90;;;11.57;;
70406;SDS011;57821;52.202;0.154;2022-12-18T10:48:04;23.60;;;10.48;;
70406;SDS011;57821;52.202;0.154;2022-12-18T10:50:43;25.52;;;10.80;;
70406;SDS011;57821;52.202;0.154;2022-12-18T10:53:34;23.48;;;10.73;;
70406;SDS011;57821;52.202;0.154;2022-12-18T10:56:03;24.15;;;10.65;;
70406;SDS011;57821;52.202;0.154;2022-12-18T10:58:35;21.48;;;9.85;;
70406;SDS011;57821;52.202;0.154;2022-12-18T11:01:13;24.42;;;10.82;;
70406;SDS011;57821;52.202;0.154;2022-12-18T11:03:43;24.58;;;12.05;;
70406;SDS011;57821;52.202;0.154;2022-12-18T11:08:57;25.88;;;11.98;;
70406;SDS011;57821;52.202;0.154;2022-12-18T11:11:25;24.42;;;11.70;;
70406;SDS011;57821;52.202;0.154;2022-12-18T11:13:55;23.23;;;11.60;;
70406;SDS011;57821;52.202;0.154;2022-12-18T11:16:23;25.92;;;12.75;;
70406;SDS011;57821;52.202;0.154;2022-12-18T11:18:50;18.90;;;10.95;;
70406;SDS011;57821;52.202;0.154;2022-12-18T11:21:17;26.58;;;12.82;;
70406;SDS011;57821;52.202;0.154;2022-12-18T11:23:48;26.10;;;12.38;;
70406;SDS011;57821;52.202;0.154;2022-12-18T11:26:16;24.33;;;12.57;;
70406;SDS011;57821;52.202;0.154;2022-12-18T11:28:50;29.45;;;13.45;;
70406;SDS011;57821;52.202;0.154;2022-12-18T11:31:34;30.60;;;12.30;;
70406;SDS011;57821;52.202;0.154;2022-12-18T11:34:05;23.58;;;12.75;;
70406;SDS011;57821;52.202;0.154;2022-12-18T11:36:54;23.60;;;11.68;;
70406;SDS011;57821;52.202;0.154;2022-12-18T11:47:46;28.50;;;13.15;;
70406;SDS011;57821;52.202;0.154;2022-12-18T11:50:19;34.50;;;13.30;;
70406;SDS011;57821;52.202;0.154;2022-12-18T11:55:28;32.55;;;13.90;;
70406;SDS011;57821;52.202;0.154;2022-12-18T12:00:36;28.92;;;14.10;;
70406;SDS011;57821;52.202;0.154;2022-12-18T12:11:18;29.83;;;15.35;;
70406;SDS011;57821;52.202;0.154;2022-12-18T12:14:01;30.17;;;15.02;;
70406;SDS011;57821;52.202;0.154;2022-12-18T12:16:37;30.27;;;15.15;;
70406;SDS011;57821;52.202;0.154;2022-12-18T12:22:03;32.08;;;14.77;;
70406;SDS011;57821;52.202;0.154;2022-12-18T12:27:37;30.55;;;15.05;;
70406;SDS011;57821;52.202;0.154;2022-12-18T12:38:23;33.75;;;16.95;;
70406;SDS011;57821;52.202;0.154;2022-12-18T12:41:01;32.15;;;16.67;;
70406;SDS011;57821;52.202;0.154;2022-12-18T12:43:46;33.63;;;16.63;;
70406;SDS011;57821;52.202;0.154;2022-12-18T12:46:17;34.72;;;16.52;;
70406;SDS011;57821;52.202;0.154;2022-12-18T12:48:48;32.38;;;15.80;;
70406;SDS011;57821;52.202;0.154;2022-12-18T12:51:22;38.97;;;18.60;;
70406;SDS011;57821;52.202;0.154;2022-12-18T12:54:01;32.55;;;16.23;;
70406;SDS011;57821;52.202;0.154;2022-12-18T13:04:57;34.55;;;17.35;;
70406;SDS011;57821;52.202;0.154;2022-12-18T13:07:41;35.67;;;18.15;;
70406;SDS011;57821;52.202;0.154;2022-12-18T13:13:12;36.45;;;16.98;;
70406;SDS011;57821;52.202;0.154;2022-12-18T13:16:10;36.75;;;16.60;;
70406;SDS011;57821;52.202;0.154;2022-12-18T13:18:36;31.55;;;17.33;;
70406;SDS011;57821;52.202;0.154;2022-12-18T13:21:08;35.35;;;17.48;;
70406;SDS011;57821;52.202;0.154;2022-12-18T13:23:49;38.88;;;18.15;;
70406;SDS011;57821;52.202;0.154;2022-12-18T13:31:11;36.25;;;17.48;;
70406;SDS011;57821;52.202;0.154;2022-12-18T13:33:43;39.65;;;17.85;;
70406;SDS011;57821;52.202;0.154;2022-12-18T13:36:32;36.10;;;17.85;;
70406;SDS011;57821;52.202;0.154;2022-12-18T13:39:09;40.65;;;18.85;;
70406;SDS011;57821;52.202;0.154;2022-12-18T13:44:34;40.25;;;18.38;;
70406;SDS011;57821;52.202;0.154;2022-12-18T13:50:09;36.35;;;17.92;;
70406;SDS011;57821;52.202;0.154;2022-12-18T13:53:05;39.92;;;19.20;;
70406;SDS011;57821;52.202;0.154;2022-12-18T13:55:31;37.28;;;19.77;;
70406;SDS011;57821;52.202;0.154;2022-12-18T13:58:11;45.03;;;20.45;;
70406;SDS011;57821;52.202;0.154;2022-12-18T14:00:41;44.92;;;19.20;;
70406;SDS011;57821;52.202;0.154;2022-12-18T14:03:18;42.90;;;21.10;;
70406;SDS011;57821;52.202;0.154;2022-12-18T14:06:01;41.42;;;19.33;;
70406;SDS011;57821;52.202;0.154;2022-12-18T14:08:33;41.67;;;19.25;;
70406;SDS011;57821;52.202;0.154;2022-12-18T14:11:04;44.65;;;19.52;;
70406;SDS011;57821;52.202;0.154;2022-12-18T14:13:37;41.10;;;20.67;;
70406;SDS011;57821;52.202;0.154;2022-12-18T14:16:07;47.22;;;21.52;;
70406;SDS011;57821;52.202;0.154;2022-12-18T14:18:48;44.25;;;21.92;;
70406;SDS011;57821;52.202;0.154;2022-12-18T14:21:26;41.72;;;20.25;;
70406;SDS011;57821;52.202;0.154;2022-12-18T14:26:47;51.20;;;21.02;;
70406;SDS011;57821;52.202;0.154;2022-12-18T14:29:28;44.80;;;20.75;;
70406;SDS011;57821;52.202;0.154;2022-12-18T14:34:44;46.22;;;21.50;;
70406;SDS011;57821;52.202;0.154;2022-12-18T14:37:20;43.17;;;21.25;;
70406;SDS011;57821;52.202;0.154;2022-12-18T14:42:32;46.78;;;23.25;;
70406;SDS011;57821;52.202;0.154;2022-12-18T14:48:08;43.78;;;20.55;;
70406;SDS011;57821;52.202;0.154;2022-12-18T14:50:56;40.67;;;20.58;;
70406;SDS011;57821;52.202;0.154;2022-12-18T14:56:25;44.05;;;20.85;;
70406;SDS011;57821;52.202;0.154;2022-12-18T14:59:21;45.78;;;20.45;;
70406;SDS011;57821;52.202;0.154;2022-12-18T15:05:05;45.92;;;20.75;;
70406;SDS011;57821;52.202;0.154;2022-12-18T15:07:48;45.25;;;20.85;;
70406;SDS011;57821;52.202;0.154;2022-12-18T15:10:17;49.40;;;21.23;;
70406;SDS011;57821;52.202;0.154;2022-12-18T15:12:47;46.38;;;20.45;;
70406;SDS011;57821;52.202;0.154;2022-12-18T15:26:08;38.20;;;17.77;;
70406;SDS011;57821;52.202;0.154;2022-12-18T15:28:39;42.38;;;18.50;;
70406;SDS011;57821;52.202;0.154;2022-12-18T15:33:42;35.85;;;16.00;;
70406;SDS011;57821;52.202;0.154;2022-12-18T15:36:11;35.17;;;16.55;;
70406;SDS011;57821;52.202;0.154;2022-12-18T15:38:39;32.10;;;16.15;;
70406;SDS011;57821;52.202;0.154;2022-12-18T15:41:11;32.88;;;14.48;;
70406;SDS011;57821;52.202;0.154;2022-12-18T15:43:39;28.30;;;13.40;;
70406;SDS011;57821;52.202;0.154;2022-12-18T15:46:14;36.20;;;15.77;;
70406;SDS011;57821;52.202;0.154;2022-12-18T15:48:43;29.33;;;14.40;;
70406;SDS011;57821;52.202;0.154;2022-12-18T15:51:28;30.77;;;14.98;;
70406;SDS011;57821;52.202;0.154;2022-12-18T15:54:02;36.30;;;15.43;;
70406;SDS011;57821;52.202;0.154;2022-12-18T15:56:30;32.42;;;15.23;;
70406;SDS011;57821;52.202;0.154;2022-12-18T15:58:58;36.88;;;16.40;;
70406;SDS011;57821;52.202;0.154;2022-12-18T16:01:27;31.27;;;15.10;;
70406;SDS011;57821;52.202;0.154;2022-12-18T16:03:56;30.00;;;14.05;;
70406;SDS011;57821;52.202;0.154;2022-12-18T16:06:23;33.35;;;14.80;;
70406;SDS011;57821;52.202;0.154;2022-12-18T16:08:49;29.67;;;14.02;;
70406;SDS011;57821;52.202;0.154;2022-12-18T16:13:53;24.35;;;13.35;;
70406;SDS011;57821;52.202;0.154;2022-12-18T16:16:19;25.23;;;13.55;;
70406;SDS011;57821;52.202;0.154;2022-12-18T16:18:46;30.58;;;14.23;;
70406;SDS011;57821;52.202;0.154;2022-12-18T16:21:12;24.35;;;11.95;;
70406;SDS011;57821;52.202;0.154;2022-12-18T16:23:39;29.67;;;13.32;;
70406;SDS011;57821;52.202;0.154;2022-12-18T16:26:07;24.85;;;12.13;;
70406;SDS011;57821;52.202;0.154;2022-12-18T16:28:34;26.23;;;11.75;;
70406;SDS011;57821;52.202;0.154;2022-12-18T16:31:00;23.15;;;11.68;;
70406;SDS011;57821;52.202;0.154;2022-12-18T16:33:27;22.92;;;12.32;;
70406;SDS011;57821;52.202;0.154;2022-12-18T16:35:53;23.05;;;11.73;;
70406;SDS011;57821;52.202;0.154;2022-12-18T16:38:19;24.77;;;12.57;;
70406;SDS011;57821;52.202;0.154;2022-12-18T16:40:46;27.60;;;12.80;;
70406;SDS011;57821;52.202;0.154;2022-12-18T16:43:12;24.25;;;11.88;;
70406;SDS011;57821;52.202;0.154;2022-12-18T16:45:40;24.50;;;11.32;;
70406;SDS011;57821;52.202;0.154;2022-12-18T16:48:06;27.60;;;12.15;;
70406;SDS011;57821;52.202;0.154;2022-12-18T16:50:36;18.77;;;8.93;;
70406;SDS011;57821;52.202;0.154;2022-12-18T16:53:02;23.70;;;11.10;;
70406;SDS011;57821;52.202;0.154;2022-12-18T16:55:29;21.98;;;10.35;;